Terminal Aerodrome Forecast
Issued by NWS San Angelo, TX

Home | Current Version | Previous Version | Text Only | Print | Product List | Glossary On
Versions: 1 2 3 4 5 6 7 8 9 10 11 12 13 14 15 16 17 18 19
462
FTUS44 KSJT 212331
TAFSJT
TAF
KSJT 212331Z 2200/2224 19010KT P6SM SCT050
     FM220600 34012KT P6SM VCTS SCT050CB BKN100
     FM220800 36012KT P6SM SCT250
     FM221800 02010KT P6SM SKC=

USA.gov is the U.S. government's official web portal to all federal, state and local government web resources and services.